sensor_id;sensor_type;location;lat;lon;timestamp;temperature;humidity
12268;DHT22;6196;48.398;11.736;2024-03-23T00:54:09;8.80;99.90
12268;DHT22;6196;48.398;11.736;2024-03-23T00:56:35;8.70;99.90
12268;DHT22;6196;48.398;11.736;2024-03-23T00:59:01;8.70;99.90
12268;DHT22;6196;48.398;11.736;2024-03-23T01:01:27;8.70;99.90
12268;DHT22;6196;48.398;11.736;2024-03-23T01:03:53;8.70;99.90
12268;DHT22;6196;48.398;11.736;2024-03-23T01:06:18;8.60;99.90
12268;DHT22;6196;48.398;11.736;2024-03-23T01:08:44;8.50;99.90
12268;DHT22;6196;48.398;11.736;2024-03-23T01:11:10;8.30;99.90
12268;DHT22;6196;48.398;11.736;2024-03-23T01:13:37;8.30;99.90
12268;DHT22;6196;48.398;11.736;2024-03-23T01:16:03;8.20;99.90
12268;DHT22;6196;48.398;11.736;2024-03-23T01:18:29;8.10;99.90
12268;DHT22;6196;48.398;11.736;2024-03-23T01:20:55;8.00;99.90
12268;DHT22;6196;48.398;11.736;2024-03-23T01:23:21;8.00;99.90
12268;DHT22;6196;48.398;11.736;2024-03-23T01:25:54;8.00;99.90
12268;DHT22;6196;48.398;11.736;2024-03-23T01:28:21;8.00;99.90
12268;DHT22;6196;48.398;11.736;2024-03-23T01:30:47;8.00;99.90
12268;DHT22;6196;48.398;11.736;2024-03-23T01:33:14;7.90;99.90
12268;DHT22;6196;48.398;11.736;2024-03-23T01:35:40;7.90;99.90
12268;DHT22;6196;48.398;11.736;2024-03-23T01:38:06;7.80;99.90
12268;DHT22;6196;48.398;11.736;2024-03-23T01:40:32;7.70;99.90
12268;DHT22;6196;48.398;11.736;2024-03-23T01:43:01;7.70;99.90
12268;DHT22;6196;48.398;11.736;2024-03-23T01:45:30;7.60;99.90
12268;DHT22;6196;48.398;11.736;2024-03-23T01:47:56;7.60;99.90
12268;DHT22;6196;48.398;11.736;2024-03-23T01:50:23;7.50;99.90
12268;DHT22;6196;48.398;11.736;2024-03-23T01:52:50;7.50;99.90
12268;DHT22;6196;48.398;11.736;2024-03-23T01:55:16;7.40;99.90
12268;DHT22;6196;48.398;11.736;2024-03-23T01:57:42;7.40;99.90
12268;DHT22;6196;48.398;11.736;2024-03-23T02:00:09;7.40;99.90
12268;DHT22;6196;48.398;11.736;2024-03-23T02:02:45;7.40;99.90
12268;DHT22;6196;48.398;11.736;2024-03-23T02:05:11;7.30;99.90
12268;DHT22;6196;48.398;11.736;2024-03-23T02:07:39;7.30;99.90
12268;DHT22;6196;48.398;11.736;2024-03-23T02:10:09;7.30;99.90
12268;DHT22;6196;48.398;11.736;2024-03-23T02:12:36;7.20;99.90
12268;DHT22;6196;48.398;11.736;2024-03-23T02:15:03;7.30;99.90
12268;DHT22;6196;48.398;11.736;2024-03-23T02:17:31;7.20;99.90
12268;DHT22;6196;48.398;11.736;2024-03-23T02:19:59;7.20;99.90
12268;DHT22;6196;48.398;11.736;2024-03-23T02:22:37;7.10;99.90
12268;DHT22;6196;48.398;11.736;2024-03-23T02:25:06;7.10;99.90
12268;DHT22;6196;48.398;11.736;2024-03-23T02:27:32;7.00;99.90
12268;DHT22;6196;48.398;11.736;2024-03-23T02:30:00;7.00;99.90
12268;DHT22;6196;48.398;11.736;2024-03-23T02:32:26;6.90;99.90
12268;DHT22;6196;48.398;11.736;2024-03-23T02:34:52;6.90;99.90
12268;DHT22;6196;48.398;11.736;2024-03-23T02:37:18;6.90;99.90
12268;DHT22;6196;48.398;11.736;2024-03-23T02:39:44;6.90;99.90
12268;DHT22;6196;48.398;11.736;2024-03-23T02:42:10;6.90;99.90
12268;DHT22;6196;48.398;11.736;2024-03-23T02:44:36;6.90;99.90
12268;DHT22;6196;48.398;11.736;2024-03-23T02:47:02;6.90;99.90
12268;DHT22;6196;48.398;11.736;2024-03-23T02:49:28;7.00;99.90
12268;DHT22;6196;48.398;11.736;2024-03-23T02:51:54;7.10;99.90
12268;DHT22;6196;48.398;11.736;2024-03-23T02:54:20;7.00;99.90
12268;DHT22;6196;48.398;11.736;2024-03-23T02:56:46;7.00;99.90
12268;DHT22;6196;48.398;11.736;2024-03-23T02:59:11;7.00;99.90
12268;DHT22;6196;48.398;11.736;2024-03-23T03:01:37;6.90;99.90
12268;DHT22;6196;48.398;11.736;2024-03-23T03:04:03;6.90;99.90
12268;DHT22;6196;48.398;11.736;2024-03-23T03:06:31;6.90;99.90
12268;DHT22;6196;48.398;11.736;2024-03-23T03:08:57;6.80;99.90
12268;DHT22;6196;48.398;11.736;2024-03-23T03:11:23;6.80;99.90
12268;DHT22;6196;48.398;11.736;2024-03-23T03:13:49;6.80;99.90
12268;DHT22;6196;48.398;11.736;2024-03-23T03:16:15;6.70;99.90
12268;DHT22;6196;48.398;11.736;2024-03-23T03:18:41;6.80;99.90
12268;DHT22;6196;48.398;11.736;2024-03-23T03:21:07;6.80;99.90
12268;DHT22;6196;48.398;11.736;2024-03-23T03:23:39;6.80;99.90
12268;DHT22;6196;48.398;11.736;2024-03-23T03:26:06;6.80;99.90
12268;DHT22;6196;48.398;11.736;2024-03-23T03:28:32;6.80;99.90
12268;DHT22;6196;48.398;11.736;2024-03-23T03:30:59;6.70;99.90
12268;DHT22;6196;48.398;11.736;2024-03-23T03:33:26;6.80;99.90
12268;DHT22;6196;48.398;11.736;2024-03-23T03:35:53;6.80;99.90
12268;DHT22;6196;48.398;11.736;2024-03-23T03:38:19;6.90;99.90
12268;DHT22;6196;48.398;11.736;2024-03-23T03:40:45;6.90;99.90
12268;DHT22;6196;48.398;11.736;2024-03-23T03:43:11;6.90;99.90
12268;DHT22;6196;48.398;11.736;2024-03-23T03:45:37;6.90;99.90
12268;DHT22;6196;48.398;11.736;2024-03-23T03:48:04;6.90;99.90
12268;DHT22;6196;48.398;11.736;2024-03-23T03:50:30;6.90;99.90
12268;DHT22;6196;48.398;11.736;2024-03-23T03:52:56;7.00;99.90
12268;DHT22;6196;48.398;11.736;2024-03-23T03:55:22;7.00;99.90
12268;DHT22;6196;48.398;11.736;2024-03-23T03:57:48;7.00;99.90
12268;DHT22;6196;48.398;11.736;2024-03-23T04:00:14;7.10;99.90
12268;DHT22;6196;48.398;11.736;2024-03-23T04:02:41;7.00;99.90
12268;DHT22;6196;48.398;11.736;2024-03-23T04:05:07;7.00;99.90
12268;DHT22;6196;48.398;11.736;2024-03-23T04:07:34;7.10;99.90
12268;DHT22;6196;48.398;11.736;2024-03-23T04:10:00;7.00;99.90
12268;DHT22;6196;48.398;11.736;2024-03-23T04:12:26;7.10;99.90
12268;DHT22;6196;48.398;11.736;2024-03-23T04:14:52;7.20;99.90
12268;DHT22;6196;48.398;11.736;2024-03-23T04:17:18;7.20;99.90
12268;DHT22;6196;48.398;11.736;2024-03-23T04:19:44;7.20;99.90
12268;DHT22;6196;48.398;11.736;2024-03-23T04:22:10;7.30;99.90
12268;DHT22;6196;48.398;11.736;2024-03-23T04:24:36;7.30;99.90
12268;DHT22;6196;48.398;11.736;2024-03-23T04:27:02;7.40;99.90
12268;DHT22;6196;48.398;11.736;2024-03-23T04:29:28;7.50;99.90
12268;DHT22;6196;48.398;11.736;2024-03-23T04:31:54;7.60;99.90
12268;DHT22;6196;48.398;11.736;2024-03-23T04:34:21;7.60;99.90
12268;DHT22;6196;48.398;11.736;2024-03-23T04:36:48;7.80;99.90
12268;DHT22;6196;48.398;11.736;2024-03-23T04:39:14;7.90;99.90
12268;DHT22;6196;48.398;11.736;2024-03-23T04:41:40;8.10;99.90
12268;DHT22;6196;48.398;11.736;2024-03-23T04:44:06;8.20;99.90
12268;DHT22;6196;48.398;11.736;2024-03-23T04:46:33;8.30;99.90
12268;DHT22;6196;48.398;11.736;2024-03-23T04:48:59;8.40;99.90
12268;DHT22;6196;48.398;11.736;2024-03-23T04:51:25;8.50;99.90
12268;DHT22;6196;48.398;11.736;2024-03-23T04:53:51;8.50;99.90
12268;DHT22;6196;48.398;11.736;2024-03-23T04:56:18;8.60;99.90
12268;DHT22;6196;48.398;11.736;2024-03-23T04:58:44;8.60;99.90
12268;DHT22;6196;48.398;11.736;2024-03-23T05:01:11;8.60;99.90
12268;DHT22;6196;48.398;11.736;2024-03-23T05:03:37;8.70;99.90
12268;DHT22;6196;48.398;11.736;2024-03-23T05:06:03;8.70;99.90
12268;DHT22;6196;48.398;11.736;2024-03-23T05:08:31;8.80;99.90
12268;DHT22;6196;48.398;11.736;2024-03-23T05:10:57;8.90;99.90
12268;DHT22;6196;48.398;11.736;2024-03-23T05:13:23;9.00;99.90
12268;DHT22;6196;48.398;11.736;2024-03-23T05:15:55;9.00;99.90
12268;DHT22;6196;48.398;11.736;2024-03-23T05:18:21;9.00;99.90
12268;DHT22;6196;48.398;11.736;2024-03-23T05:20:48;9.00;99.90
12268;DHT22;6196;48.398;11.736;2024-03-23T05:23:14;9.00;99.90
12268;DHT22;6196;48.398;11.736;2024-03-23T05:25:40;9.00;99.90
12268;DHT22;6196;48.398;11.736;2024-03-23T05:28:05;9.00;99.90
12268;DHT22;6196;48.398;11.736;2024-03-23T05:30:32;9.00;99.90
12268;DHT22;6196;48.398;11.736;2024-03-23T05:32:58;9.10;99.90
12268;DHT22;6196;48.398;11.736;2024-03-23T05:35:24;9.00;99.90
12268;DHT22;6196;48.398;11.736;2024-03-23T05:37:50;9.10;99.90
12268;DHT22;6196;48.398;11.736;2024-03-23T05:40:16;8.90;99.90
12268;DHT22;6196;48.398;11.736;2024-03-23T05:42:42;8.90;99.90
12268;DHT22;6196;48.398;11.736;2024-03-23T05:45:08;8.90;99.90
12268;DHT22;6196;48.398;11.736;2024-03-23T05:47:34;9.10;99.90
12268;DHT22;6196;48.398;11.736;2024-03-23T05:50:00;9.20;99.90
12268;DHT22;6196;48.398;11.736;2024-03-23T05:52:27;9.10;99.90
12268;DHT22;6196;48.398;11.736;2024-03-23T05:54:53;9.00;99.90
12268;DHT22;6196;48.398;11.736;2024-03-23T05:57:19;9.00;99.90
12268;DHT22;6196;48.398;11.736;2024-03-23T05:59:45;8.90;99.90
12268;DHT22;6196;48.398;11.736;2024-03-23T06:02:11;8.90;99.90
12268;DHT22;6196;48.398;11.736;2024-03-23T06:04:37;8.90;99.90
12268;DHT22;6196;48.398;11.736;2024-03-23T06:07:04;9.00;99.90
12268;DHT22;6196;48.398;11.736;2024-03-23T06:09:32;9.30;99.90
12268;DHT22;6196;48.398;11.736;2024-03-23T06:11:58;9.40;99.90
12268;DHT22;6196;48.398;11.736;2024-03-23T06:14:24;9.70;99.90
12268;DHT22;6196;48.398;11.736;2024-03-23T06:16:50;9.90;99.90
12268;DHT22;6196;48.398;11.736;2024-03-23T06:19:15;10.20;99.90
12268;DHT22;6196;48.398;11.736;2024-03-23T06:21:45;10.40;99.90
12268;DHT22;6196;48.398;11.736;2024-03-23T06:24:11;10.70;99.90
12268;DHT22;6196;48.398;11.736;2024-03-23T06:26:37;10.90;99.90
12268;DHT22;6196;48.398;11.736;2024-03-23T06:29:04;11.20;99.90
12268;DHT22;6196;48.398;11.736;2024-03-23T06:31:31;11.40;99.90
12268;DHT22;6196;48.398;11.736;2024-03-23T06:33:57;11.50;99.90
12268;DHT22;6196;48.398;11.736;2024-03-23T06:36:23;11.80;99.90
12268;DHT22;6196;48.398;11.736;2024-03-23T06:38:50;12.00;99.90
12268;DHT22;6196;48.398;11.736;2024-03-23T06:41:16;12.10;99.90
12268;DHT22;6196;48.398;11.736;2024-03-23T06:43:43;12.20;99.90
12268;DHT22;6196;48.398;11.736;2024-03-23T06:46:09;12.10;99.90
12268;DHT22;6196;48.398;11.736;2024-03-23T06:48:35;12.30;99.90
12268;DHT22;6196;48.398;11.736;2024-03-23T06:51:01;12.80;99.90
12268;DHT22;6196;48.398;11.736;2024-03-23T06:53:27;13.00;99.90
12268;DHT22;6196;48.398;11.736;2024-03-23T06:55:53;12.80;99.90
12268;DHT22;6196;48.398;11.736;2024-03-23T06:58:24;13.00;99.90
12268;DHT22;6196;48.398;11.736;2024-03-23T07:00:50;13.40;99.90
12268;DHT22;6196;48.398;11.736;2024-03-23T07:03:17;14.00;99.90
12268;DHT22;6196;48.398;11.736;2024-03-23T07:05:43;14.50;99.90
12268;DHT22;6196;48.398;11.736;2024-03-23T07:08:09;14.50;99.90
12268;DHT22;6196;48.398;11.736;2024-03-23T07:10:38;14.30;99.90
12268;DHT22;6196;48.398;11.736;2024-03-23T07:13:05;14.30;99.90
12268;DHT22;6196;48.398;11.736;2024-03-23T07:15:31;14.50;99.90
12268;DHT22;6196;48.398;11.736;2024-03-23T07:17:56;14.60;99.90
12268;DHT22;6196;48.398;11.736;2024-03-23T07:20:22;14.70;99.90
12268;DHT22;6196;48.398;11.736;2024-03-23T07:22:48;14.70;99.90
12268;DHT22;6196;48.398;11.736;2024-03-23T07:25:14;14.70;99.90
12268;DHT22;6196;48.398;11.736;2024-03-23T07:27:40;14.50;99.90
12268;DHT22;6196;48.398;11.736;2024-03-23T07:30:07;14.20;99.90
12268;DHT22;6196;48.398;11.736;2024-03-23T07:32:35;14.10;99.90
12268;DHT22;6196;48.398;11.736;2024-03-23T07:35:01;13.90;99.90
12268;DHT22;6196;48.398;11.736;2024-03-23T07:37:27;13.80;99.90
12268;DHT22;6196;48.398;11.736;2024-03-23T07:39:54;13.60;99.90
12268;DHT22;6196;48.398;11.736;2024-03-23T07:42:19;13.50;99.90
12268;DHT22;6196;48.398;11.736;2024-03-23T07:44:45;13.40;99.90
12268;DHT22;6196;48.398;11.736;2024-03-23T07:47:12;13.30;99.90
12268;DHT22;6196;48.398;11.736;2024-03-23T07:49:38;13.10;99.90
12268;DHT22;6196;48.398;11.736;2024-03-23T07:52:05;13.10;99.90
12268;DHT22;6196;48.398;11.736;2024-03-23T07:54:31;13.00;99.90
12268;DHT22;6196;48.398;11.736;2024-03-23T07:56:57;13.00;99.90
12268;DHT22;6196;48.398;11.736;2024-03-23T07:59:23;12.80;99.90
12268;DHT22;6196;48.398;11.736;2024-03-23T08:01:49;12.70;99.90
12268;DHT22;6196;48.398;11.736;2024-03-23T08:04:15;12.70;99.90
12268;DHT22;6196;48.398;11.736;2024-03-23T08:06:41;12.40;99.90
12268;DHT22;6196;48.398;11.736;2024-03-23T08:09:07;11.70;99.90
12268;DHT22;6196;48.398;11.736;2024-03-23T08:11:33;11.10;99.90
12268;DHT22;6196;48.398;11.736;2024-03-23T08:14:00;10.80;99.90
12268;DHT22;6196;48.398;11.736;2024-03-23T08:16:27;10.70;99.90
12268;DHT22;6196;48.398;11.736;2024-03-23T08:18:54;10.60;99.90
12268;DHT22;6196;48.398;11.736;2024-03-23T08:21:22;10.40;99.90
12268;DHT22;6196;48.398;11.736;2024-03-23T08:23:48;10.30;99.90
12268;DHT22;6196;48.398;11.736;2024-03-23T08:26:16;10.10;99.90
12268;DHT22;6196;48.398;11.736;2024-03-23T08:28:43;10.00;99.90
12268;DHT22;6196;48.398;11.736;2024-03-23T08:31:11;10.00;99.90
12268;DHT22;6196;48.398;11.736;2024-03-23T08:33:38;9.90;99.90
12268;DHT22;6196;48.398;11.736;2024-03-23T08:36:06;9.90;99.90
12268;DHT22;6196;48.398;11.736;2024-03-23T08:38:34;9.90;99.90
12268;DHT22;6196;48.398;11.736;2024-03-23T08:41:00;9.80;99.90
12268;DHT22;6196;48.398;11.736;2024-03-23T08:43:32;9.70;99.90
12268;DHT22;6196;48.398;11.736;2024-03-23T08:46:09;9.70;99.90
12268;DHT22;6196;48.398;11.736;2024-03-23T08:48:40;9.90;99.90
12268;DHT22;6196;48.398;11.736;2024-03-23T08:51:10;9.80;99.90
12268;DHT22;6196;48.398;11.736;2024-03-23T08:53:37;9.60;99.90
12268;DHT22;6196;48.398;11.736;2024-03-23T08:56:04;9.70;99.90
12268;DHT22;6196;48.398;11.736;2024-03-23T08:58:35;9.70;99.90
12268;DHT22;6196;48.398;11.736;2024-03-23T09:01:08;9.60;99.90
12268;DHT22;6196;48.398;11.736;2024-03-23T09:03:38;9.70;99.90
12268;DHT22;6196;48.398;11.736;2024-03-23T09:06:12;9.70;99.90
12268;DHT22;6196;48.398;11.736;2024-03-23T09:08:39;9.70;99.90
12268;DHT22;6196;48.398;11.736;2024-03-23T09:11:11;9.70;99.90
12268;DHT22;6196;48.398;11.736;2024-03-23T09:13:38;9.60;99.90
12268;DHT22;6196;48.398;11.736;2024-03-23T09:16:05;9.60;99.90
12268;DHT22;6196;48.398;11.736;2024-03-23T09:18:33;9.70;99.90
12268;DHT22;6196;48.398;11.736;2024-03-23T09:20:59;9.80;99.90
12268;DHT22;6196;48.398;11.736;2024-03-23T09:23:25;9.60;99.90
12268;DHT22;6196;48.398;11.736;2024-03-23T09:25:51;9.80;99.90
12268;DHT22;6196;48.398;11.736;2024-03-23T09:28:17;9.70;99.90
12268;DHT22;6196;48.398;11.736;2024-03-23T09:30:43;9.80;99.90
12268;DHT22;6196;48.398;11.736;2024-03-23T09:33:10;9.80;99.90
12268;DHT22;6196;48.398;11.736;2024-03-23T09:35:40;9.80;99.90
12268;DHT22;6196;48.398;11.736;2024-03-23T09:38:06;9.80;99.90
12268;DHT22;6196;48.398;11.736;2024-03-23T09:40:40;9.80;99.90
12268;DHT22;6196;48.398;11.736;2024-03-23T09:43:08;9.70;99.90
12268;DHT22;6196;48.398;11.736;2024-03-23T09:45:38;9.80;99.90
12268;DHT22;6196;48.398;11.736;2024-03-23T09:48:08;9.90;99.90
12268;DHT22;6196;48.398;11.736;2024-03-23T09:50:40;9.90;99.90
12268;DHT22;6196;48.398;11.736;2024-03-23T09:53:11;9.80;99.90
12268;DHT22;6196;48.398;11.736;2024-03-23T09:55:44;9.90;99.90
12268;DHT22;6196;48.398;11.736;2024-03-23T09:58:15;9.80;99.90
12268;DHT22;6196;48.398;11.736;2024-03-23T10:00:43;10.00;99.90
12268;DHT22;6196;48.398;11.736;2024-03-23T10:03:09;10.00;99.90
12268;DHT22;6196;48.398;11.736;2024-03-23T10:05:37;10.10;99.90
12268;DHT22;6196;48.398;11.736;2024-03-23T10:10:42;10.00;99.90
12268;DHT22;6196;48.398;11.736;2024-03-23T10:13:09;9.90;99.90
12268;DHT22;6196;48.398;11.736;2024-03-23T10:15:36;9.80;99.90
12268;DHT22;6196;48.398;11.736;2024-03-23T10:18:18;9.70;99.90
12268;DHT22;6196;48.398;11.736;2024-03-23T10:21:14;9.80;99.90
12268;DHT22;6196;48.398;11.736;2024-03-23T10:23:42;9.70;99.90
12268;DHT22;6196;48.398;11.736;2024-03-23T10:26:28;9.70;99.90
12268;DHT22;6196;48.398;11.736;2024-03-23T10:31:31;9.60;99.90
12268;DHT22;6196;48.398;11.736;2024-03-23T10:33:57;9.50;99.90
12268;DHT22;6196;48.398;11.736;2024-03-23T10:36:24;9.70;99.90
12268;DHT22;6196;48.398;11.736;2024-03-23T10:38:54;9.80;99.90
12268;DHT22;6196;48.398;11.736;2024-03-23T10:41:20;9.80;99.90
12268;DHT22;6196;48.398;11.736;2024-03-23T10:43:47;9.90;99.90
12268;DHT22;6196;48.398;11.736;2024-03-23T10:46:14;10.10;99.90
12268;DHT22;6196;48.398;11.736;2024-03-23T10:48:41;10.20;99.90
12268;DHT22;6196;48.398;11.736;2024-03-23T10:51:10;10.40;99.90
12268;DHT22;6196;48.398;11.736;2024-03-23T10:53:36;10.50;99.90
12268;DHT22;6196;48.398;11.736;2024-03-23T10:56:03;10.50;99.90
12268;DHT22;6196;48.398;11.736;2024-03-23T10:58:38;10.30;99.90
12268;DHT22;6196;48.398;11.736;2024-03-23T11:01:04;10.30;99.90
12268;DHT22;6196;48.398;11.736;2024-03-23T11:03:37;10.10;99.90
12268;DHT22;6196;48.398;11.736;2024-03-23T11:06:05;9.80;99.90
12268;DHT22;6196;48.398;11.736;2024-03-23T11:08:33;9.70;99.90
12268;DHT22;6196;48.398;11.736;2024-03-23T11:11:20;9.60;99.90
12268;DHT22;6196;48.398;11.736;2024-03-23T11:13:49;9.40;99.90
12268;DHT22;6196;48.398;11.736;2024-03-23T11:16:17;9.60;99.90
12268;DHT22;6196;48.398;11.736;2024-03-23T11:19:38;9.70;99.90
12268;DHT22;6196;48.398;11.736;2024-03-23T11:22:04;9.80;99.90
12268;DHT22;6196;48.398;11.736;2024-03-23T11:24:31;9.60;99.90
12268;DHT22;6196;48.398;11.736;2024-03-23T11:26:58;9.60;99.90
12268;DHT22;6196;48.398;11.736;2024-03-23T11:29:27;9.60;99.90
12268;DHT22;6196;48.398;11.736;2024-03-23T11:31:55;9.70;99.90
12268;DHT22;6196;48.398;11.736;2024-03-23T11:34:22;9.60;99.90
12268;DHT22;6196;48.398;11.736;2024-03-23T11:36:48;9.70;99.90
12268;DHT22;6196;48.398;11.736;2024-03-23T11:39:18;9.60;99.90
12268;DHT22;6196;48.398;11.736;2024-03-23T11:41:50;9.90;99.90
12268;DHT22;6196;48.398;11.736;2024-03-23T11:44:20;10.00;99.90
12268;DHT22;6196;48.398;11.736;2024-03-23T11:46:50;10.30;99.90
12268;DHT22;6196;48.398;11.736;2024-03-23T11:49:28;10.40;99.90
12268;DHT22;6196;48.398;11.736;2024-03-23T11:51:56;10.70;99.90
12268;DHT22;6196;48.398;11.736;2024-03-23T11:54:26;11.00;99.90
12268;DHT22;6196;48.398;11.736;2024-03-23T11:57:03;11.20;99.90
12268;DHT22;6196;48.398;11.736;2024-03-23T11:59:35;11.90;99.90
12268;DHT22;6196;48.398;11.736;2024-03-23T12:02:09;12.60;99.90
12268;DHT22;6196;48.398;11.736;2024-03-23T12:04:40;12.90;99.90
12268;DHT22;6196;48.398;11.736;2024-03-23T12:07:17;12.90;99.90
12268;DHT22;6196;48.398;11.736;2024-03-23T12:09:49;12.90;99.90
12268;DHT22;6196;48.398;11.736;2024-03-23T12:12:29;12.50;99.90
12268;DHT22;6196;48.398;11.736;2024-03-23T12:15:06;12.10;99.90
12268;DHT22;6196;48.398;11.736;2024-03-23T12:17:34;11.90;99.90
12268;DHT22;6196;48.398;11.736;2024-03-23T12:20:01;11.70;99.90
12268;DHT22;6196;48.398;11.736;2024-03-23T12:22:27;11.40;99.90
12268;DHT22;6196;48.398;11.736;2024-03-23T12:24:55;10.70;99.90
12268;DHT22;6196;48.398;11.736;2024-03-23T12:27:22;10.50;99.90
12268;DHT22;6196;48.398;11.736;2024-03-23T12:29:48;10.30;99.90
12268;DHT22;6196;48.398;11.736;2024-03-23T12:32:14;10.50;99.90
12268;DHT22;6196;48.398;11.736;2024-03-23T12:34:42;10.60;99.90
12268;DHT22;6196;48.398;11.736;2024-03-23T12:37:08;10.70;99.90
12268;DHT22;6196;48.398;11.736;2024-03-23T12:39:38;10.60;99.90
12268;DHT22;6196;48.398;11.736;2024-03-23T12:42:04;10.60;99.90
12268;DHT22;6196;48.398;11.736;2024-03-23T12:44:30;10.70;99.90
12268;DHT22;6196;48.398;11.736;2024-03-23T12:46:57;10.60;99.90
12268;DHT22;6196;48.398;11.736;2024-03-23T12:49:23;10.60;99.90
12268;DHT22;6196;48.398;11.736;2024-03-23T12:51:56;10.60;99.90
12268;DHT22;6196;48.398;11.736;2024-03-23T12:54:23;10.50;99.90
12268;DHT22;6196;48.398;11.736;2024-03-23T12:56:49;10.20;99.90
12268;DHT22;6196;48.398;11.736;2024-03-23T12:59:15;10.20;99.90
12268;DHT22;6196;48.398;11.736;2024-03-23T13:01:42;10.20;99.90
12268;DHT22;6196;48.398;11.736;2024-03-23T13:04:09;10.10;99.90
12268;DHT22;6196;48.398;11.736;2024-03-23T13:06:35;10.00;99.90
12268;DHT22;6196;48.398;11.736;2024-03-23T13:09:01;9.80;99.90
12268;DHT22;6196;48.398;11.736;2024-03-23T13:11:29;9.90;99.90
12268;DHT22;6196;48.398;11.736;2024-03-23T13:13:55;9.80;99.90
12268;DHT22;6196;48.398;11.736;2024-03-23T13:16:21;9.90;99.90
12268;DHT22;6196;48.398;11.736;2024-03-23T13:18:48;10.10;99.90
12268;DHT22;6196;48.398;11.736;2024-03-23T13:21:14;9.90;99.90
12268;DHT22;6196;48.398;11.736;2024-03-23T13:23:40;9.90;99.90
12268;DHT22;6196;48.398;11.736;2024-03-23T13:26:08;9.90;99.90
12268;DHT22;6196;48.398;11.736;2024-03-23T13:28:34;10.00;99.90
12268;DHT22;6196;48.398;11.736;2024-03-23T13:31:01;9.80;99.90
12268;DHT22;6196;48.398;11.736;2024-03-23T13:33:30;9.90;99.90
12268;DHT22;6196;48.398;11.736;2024-03-23T13:35:58;9.70;99.90
12268;DHT22;6196;48.398;11.736;2024-03-23T13:38:25;9.60;99.90
12268;DHT22;6196;48.398;11.736;2024-03-23T13:40:56;9.70;99.90
12268;DHT22;6196;48.398;11.736;2024-03-23T13:43:24;9.70;99.90
12268;DHT22;6196;48.398;11.736;2024-03-23T13:45:57;9.50;99.90
12268;DHT22;6196;48.398;11.736;2024-03-23T13:48:25;9.40;99.90
12268;DHT22;6196;48.398;11.736;2024-03-23T13:53:25;9.20;99.90
12268;DHT22;6196;48.398;11.736;2024-03-23T13:55:51;8.90;99.90
12268;DHT22;6196;48.398;11.736;2024-03-23T13:58:17;8.50;99.90
12268;DHT22;6196;48.398;11.736;2024-03-23T14:00:43;8.50;99.90
12268;DHT22;6196;48.398;11.736;2024-03-23T14:03:12;8.40;99.90
12268;DHT22;6196;48.398;11.736;2024-03-23T14:05:39;8.30;99.90
12268;DHT22;6196;48.398;11.736;2024-03-23T14:08:07;8.30;99.90
12268;DHT22;6196;48.398;11.736;2024-03-23T14:10:33;8.30;99.90
12268;DHT22;6196;48.398;11.736;2024-03-23T14:13:02;8.00;99.90
12268;DHT22;6196;48.398;11.736;2024-03-23T14:15:29;7.50;99.90
12268;DHT22;6196;48.398;11.736;2024-03-23T14:17:58;7.60;99.90
12268;DHT22;6196;48.398;11.736;2024-03-23T14:20:25;7.60;99.90
12268;DHT22;6196;48.398;11.736;2024-03-23T14:22:52;7.70;99.90
12268;DHT22;6196;48.398;11.736;2024-03-23T14:25:18;7.60;99.90
12268;DHT22;6196;48.398;11.736;2024-03-23T14:27:45;7.50;99.90
12268;DHT22;6196;48.398;11.736;2024-03-23T14:30:12;7.60;99.90
12268;DHT22;6196;48.398;11.736;2024-03-23T14:32:38;7.60;99.90
12268;DHT22;6196;48.398;11.736;2024-03-23T14:35:05;7.70;99.90
12268;DHT22;6196;48.398;11.736;2024-03-23T14:37:39;7.60;99.90
12268;DHT22;6196;48.398;11.736;2024-03-23T14:40:07;7.60;99.90
12268;DHT22;6196;48.398;11.736;2024-03-23T14:42:34;7.30;99.90
12268;DHT22;6196;48.398;11.736;2024-03-23T14:45:00;7.40;99.90
12268;DHT22;6196;48.398;11.736;2024-03-23T14:47:26;7.40;99.90
12268;DHT22;6196;48.398;11.736;2024-03-23T14:49:52;7.50;99.90
12268;DHT22;6196;48.398;11.736;2024-03-23T14:52:18;7.50;99.90
12268;DHT22;6196;48.398;11.736;2024-03-23T14:54:44;7.40;99.90
12268;DHT22;6196;48.398;11.736;2024-03-23T14:57:11;7.50;99.90
12268;DHT22;6196;48.398;11.736;2024-03-23T14:59:37;7.50;99.90
12268;DHT22;6196;48.398;11.736;2024-03-23T15:02:09;7.50;99.90
12268;DHT22;6196;48.398;11.736;2024-03-23T15:04:35;7.30;99.90
12268;DHT22;6196;48.398;11.736;2024-03-23T15:07:01;7.50;99.90
12268;DHT22;6196;48.398;11.736;2024-03-23T15:09:27;7.60;99.90
12268;DHT22;6196;48.398;11.736;2024-03-23T15:11:53;7.40;99.90
12268;DHT22;6196;48.398;11.736;2024-03-23T15:14:21;7.50;99.90
12268;DHT22;6196;48.398;11.736;2024-03-23T15:16:47;7.60;99.90
12268;DHT22;6196;48.398;11.736;2024-03-23T15:19:15;7.70;99.90
12268;DHT22;6196;48.398;11.736;2024-03-23T15:21:43;7.70;99.90
12268;DHT22;6196;48.398;11.736;2024-03-23T15:24:09;7.70;99.90
12268;DHT22;6196;48.398;11.736;2024-03-23T15:26:37;7.70;99.90
12268;DHT22;6196;48.398;11.736;2024-03-23T15:29:03;7.80;99.90
12268;DHT22;6196;48.398;11.736;2024-03-23T15:31:37;7.40;99.90
12268;DHT22;6196;48.398;11.736;2024-03-23T15:34:03;7.50;99.90
12268;DHT22;6196;48.398;11.736;2024-03-23T15:36:30;7.50;99.90
12268;DHT22;6196;48.398;11.736;2024-03-23T15:38:57;7.80;99.90
12268;DHT22;6196;48.398;11.736;2024-03-23T15:41:23;8.20;99.90
12268;DHT22;6196;48.398;11.736;2024-03-23T15:43:50;8.50;99.90
12268;DHT22;6196;48.398;11.736;2024-03-23T15:46:17;8.30;99.90
12268;DHT22;6196;48.398;11.736;2024-03-23T15:48:44;8.40;99.90
12268;DHT22;6196;48.398;11.736;2024-03-23T15:51:15;8.60;99.90
12268;DHT22;6196;48.398;11.736;2024-03-23T15:53:40;8.70;99.90
12268;DHT22;6196;48.398;11.736;2024-03-23T15:56:07;8.90;99.90
12268;DHT22;6196;48.398;11.736;2024-03-23T15:58:33;9.10;99.90
12268;DHT22;6196;48.398;11.736;2024-03-23T16:01:04;9.40;99.90
12268;DHT22;6196;48.398;11.736;2024-03-23T16:03:32;9.20;99.90
12268;DHT22;6196;48.398;11.736;2024-03-23T16:06:02;9.50;99.90
12268;DHT22;6196;48.398;11.736;2024-03-23T16:08:30;9.50;99.90
12268;DHT22;6196;48.398;11.736;2024-03-23T16:11:04;9.80;99.90
12268;DHT22;6196;48.398;11.736;2024-03-23T16:13:32;9.70;99.90
12268;DHT22;6196;48.398;11.736;2024-03-23T16:16:03;9.60;99.90
12268;DHT22;6196;48.398;11.736;2024-03-23T16:18:34;9.50;99.90
12268;DHT22;6196;48.398;11.736;2024-03-23T16:21:04;9.50;99.90
12268;DHT22;6196;48.398;11.736;2024-03-23T16:23:35;9.20;99.90
12268;DHT22;6196;48.398;11.736;2024-03-23T16:26:04;8.80;99.90
12268;DHT22;6196;48.398;11.736;2024-03-23T16:28:34;8.60;99.90
12268;DHT22;6196;48.398;11.736;2024-03-23T16:31:03;8.60;99.90
12268;DHT22;6196;48.398;11.736;2024-03-23T16:33:33;8.60;99.90
12268;DHT22;6196;48.398;11.736;2024-03-23T16:36:10;8.40;99.90
12268;DHT22;6196;48.398;11.736;2024-03-23T16:38:40;8.50;99.90
12268;DHT22;6196;48.398;11.736;2024-03-23T16:41:12;8.60;99.90
12268;DHT22;6196;48.398;11.736;2024-03-23T16:43:41;8.40;99.90
12268;DHT22;6196;48.398;11.736;2024-03-23T16:46:09;8.30;99.90